createdAt,value
2022-10-09T00:02:00.994Z,102092.56
2022-10-09T00:04:46.123Z,102093.72
2022-10-09T00:07:31.400Z,102090.16
2022-10-09T00:10:16.778Z,102091.16
2022-10-09T00:13:01.762Z,102087.03
2022-10-09T00:15:47.471Z,102087.78
2022-10-09T00:18:33.357Z,102067.19
2022-10-09T00:21:28.358Z,102062.22
2022-10-09T00:24:13.598Z,102071.84
2022-10-09T00:26:58.665Z,102071.75
2022-10-09T00:29:43.822Z,102056.25
2022-10-09T00:32:28.786Z,102066.25
2022-10-09T00:35:14.252Z,102072.47
2022-10-09T00:37:59.190Z,102061.66
2022-10-09T00:40:44.099Z,102082.41
2022-10-09T00:43:44.941Z,102053.97
2022-10-09T00:46:35.196Z,102072.91
2022-10-09T00:49:23.012Z,102079.34
2022-10-09T00:52:08.004Z,102067.38
2022-10-09T00:54:53.954Z,102062.44
2022-10-09T00:57:40.353Z,102051.53
2022-10-09T01:00:26.815Z,102054.84
2022-10-09T01:03:12.032Z,102077.91
2022-10-09T01:06:22.259Z,102074.53
2022-10-09T01:09:25.370Z,102072.00
2022-10-09T01:12:28.053Z,102050.69
2022-10-09T01:15:36.497Z,102057.63
2022-10-09T01:18:36.845Z,102067.25
2022-10-09T01:21:30.091Z,102069.00
2022-10-09T01:24:38.091Z,102057.75
2022-10-09T01:27:28.684Z,102059.63
2022-10-09T01:30:14.049Z,102048.41
2022-10-09T01:32:59.502Z,102022.75
2022-10-09T01:35:47.049Z,102039.94
2022-10-09T01:38:34.065Z,102044.34
2022-10-09T01:41:20.398Z,102038.38
2022-10-09T01:44:16.513Z,102033.16
2022-10-09T01:47:01.915Z,102022.84
2022-10-09T01:49:54.241Z,102018.72
2022-10-09T01:52:55.790Z,102020.47
2022-10-09T01:55:47.069Z,102015.06
2022-10-09T01:58:37.190Z,102012.28
2022-10-09T02:01:28.356Z,102011.34
2022-10-09T02:04:16.725Z,102000.31
2022-10-09T02:07:02.754Z,101996.13
2022-10-09T02:09:48.056Z,101988.31
2022-10-09T02:12:38.105Z,101980.34
2022-10-09T02:15:30.982Z,101978.53
2022-10-09T02:18:22.969Z,101971.69
2022-10-09T02:21:23.707Z,101989.09
2022-10-09T02:24:14.573Z,101977.00
2022-10-09T02:27:00.628Z,101977.94
2022-10-09T02:29:46.692Z,101967.66
2022-10-09T02:32:31.583Z,101970.53
2022-10-09T02:35:16.945Z,101962.00
2022-10-09T02:38:02.130Z,101977.50
2022-10-09T02:40:47.231Z,101970.59
2022-10-09T02:43:32.390Z,101950.22
2022-10-09T02:46:18.298Z,101968.03
2022-10-09T02:49:03.445Z,101957.66
2022-10-09T02:51:48.751Z,101953.50
2022-10-09T02:54:33.624Z,101949.47
2022-10-09T02:57:18.586Z,101940.00
2022-10-09T03:00:04.722Z,101946.16
2022-10-09T03:02:50.207Z,101944.59
2022-10-09T03:05:35.470Z,101933.59
2022-10-09T03:08:20.415Z,101935.28
2022-10-09T03:11:05.570Z,101935.09
2022-10-09T03:13:51.395Z,101926.56
2022-10-09T03:16:36.525Z,101932.59
2022-10-09T03:19:21.789Z,101930.94
2022-10-09T03:22:06.815Z,101922.41
2022-10-09T03:24:51.964Z,101924.25
2022-10-09T03:27:37.006Z,101922.50
2022-10-09T03:30:22.025Z,101917.38
2022-10-09T03:33:07.232Z,101929.34
2022-10-09T03:35:52.297Z,101926.69
2022-10-09T03:38:37.343Z,101917.22
2022-10-09T03:41:22.472Z,101913.84
2022-10-09T03:44:07.571Z,101911.19
2022-10-09T03:46:52.707Z,101912.91
2022-10-09T03:49:37.821Z,101886.31
2022-10-09T03:52:22.837Z,101907.59
2022-10-09T03:55:08.568Z,101899.03
2022-10-09T03:57:53.682Z,101899.78
2022-10-09T04:00:38.656Z,101909.31
2022-10-09T04:03:24.074Z,101885.34
2022-10-09T04:06:09.250Z,101885.19
2022-10-09T04:08:54.295Z,101890.22
2022-10-09T04:11:39.589Z,101889.50
2022-10-09T04:14:24.621Z,101889.53
2022-10-09T04:17:09.787Z,101886.97
2022-10-09T04:19:54.963Z,101880.88
2022-10-09T04:22:40.069Z,101863.97
2022-10-09T04:25:24.883Z,101881.88
2022-10-09T04:28:09.963Z,101886.25
2022-10-09T04:30:57.276Z,101869.69
2022-10-09T04:33:42.215Z,101867.25
2022-10-09T04:36:27.561Z,101868.25
2022-10-09T04:39:12.810Z,101873.44
2022-10-09T04:41:58.032Z,101853.81
2022-10-09T04:44:43.469Z,101860.00
2022-10-09T04:47:28.473Z,101864.00
2022-10-09T04:50:14.909Z,101853.03
2022-10-09T04:52:59.802Z,101874.53
2022-10-09T04:55:44.927Z,101872.81
2022-10-09T04:58:31.321Z,101860.63
2022-10-09T05:01:22.509Z,101863.16
2022-10-09T05:04:08.843Z,101856.22
2022-10-09T05:06:53.770Z,101858.03
2022-10-09T05:09:38.594Z,101854.59
2022-10-09T05:12:23.726Z,101851.22
2022-10-09T05:15:09.184Z,101853.75
2022-10-09T05:17:54.146Z,101843.59
2022-10-09T05:20:42.608Z,101843.44
2022-10-09T05:23:27.846Z,101833.13
2022-10-09T05:26:19.016Z,101825.53
2022-10-09T05:29:04.119Z,101803.47
2022-10-09T05:31:49.793Z,101820.59
2022-10-09T05:34:35.046Z,101805.25
2022-10-09T05:37:20.394Z,101818.91
2022-10-09T05:40:06.013Z,101818.75
2022-10-09T05:42:51.360Z,101806.81
2022-10-09T05:45:36.618Z,101817.19
2022-10-09T05:48:22.386Z,101816.31
2022-10-09T05:51:12.881Z,101821.44
2022-10-09T05:53:59.291Z,101817.25
2022-10-09T05:56:45.205Z,101814.00
2022-10-09T05:59:30.250Z,101809.59
2022-10-09T06:02:15.168Z,101791.84
2022-10-09T06:05:00.146Z,101820.88
2022-10-09T06:07:46.590Z,101820.09
2022-10-09T06:10:32.623Z,101821.03
2022-10-09T06:13:17.705Z,101792.03
2022-10-09T06:16:03.164Z,101819.22
2022-10-09T06:18:49.511Z,101814.25
2022-10-09T06:21:35.101Z,101820.13
2022-10-09T06:24:27.245Z,101814.16
2022-10-09T06:27:14.151Z,101825.34
2022-10-09T06:29:58.926Z,101814.94
2022-10-09T06:32:43.882Z,101809.00
2022-10-09T06:35:28.879Z,101804.66
2022-10-09T06:38:15.376Z,101811.44
2022-10-09T06:41:06.164Z,101811.44
2022-10-09T06:44:04.339Z,101784.97
2022-10-09T06:46:49.934Z,101807.97
2022-10-09T06:49:35.110Z,101807.91
2022-10-09T06:52:20.039Z,101811.16
2022-10-09T06:55:05.463Z,101785.50
2022-10-09T06:57:50.446Z,101803.34
2022-10-09T07:00:35.401Z,101807.69
2022-10-09T07:03:20.646Z,101764.91
2022-10-09T07:06:15.054Z,101801.50
2022-10-09T07:09:02.405Z,101807.44
2022-10-09T07:11:49.318Z,101790.91
2022-10-09T07:14:34.755Z,101774.50
2022-10-09T07:17:20.162Z,101793.91
2022-10-09T07:20:05.321Z,101797.13
2022-10-09T07:22:50.902Z,101801.16
2022-10-09T07:25:39.524Z,101783.00
2022-10-09T07:28:26.347Z,101792.88
2022-10-09T07:31:12.248Z,101777.41
2022-10-09T07:33:57.703Z,101795.81
2022-10-09T07:36:42.697Z,101795.53
2022-10-09T07:39:27.897Z,101795.13
2022-10-09T07:42:13.078Z,101796.59
2022-10-09T07:44:58.331Z,101770.56
2022-10-09T07:47:43.219Z,101788.13
2022-10-09T07:50:28.347Z,101785.16
2022-10-09T07:53:13.231Z,101780.53
2022-10-09T07:55:58.108Z,101786.13
2022-10-09T07:58:48.268Z,101787.41
2022-10-09T08:01:35.267Z,101783.63
2022-10-09T08:04:20.316Z,101788.59
2022-10-09T08:07:05.589Z,101787.06
2022-10-09T08:09:50.445Z,101757.59
2022-10-09T08:12:35.360Z,101779.25
2022-10-09T08:15:20.346Z,101784.09
2022-10-09T08:18:05.298Z,101782.75
2022-10-09T08:21:09.077Z,101773.94
2022-10-09T08:23:57.318Z,101777.94
2022-10-09T08:26:44.115Z,101770.63
2022-10-09T08:29:29.654Z,101781.47
2022-10-09T08:32:14.836Z,101779.56
2022-10-09T08:35:00.131Z,101745.22
2022-10-09T08:37:45.306Z,101766.69
2022-10-09T08:40:58.229Z,101774.06
2022-10-09T08:43:47.702Z,101762.44
2022-10-09T08:46:56.219Z,101761.13
2022-10-09T08:50:08.947Z,101741.97
2022-10-09T08:53:06.967Z,101767.97
2022-10-09T08:56:01.148Z,101756.97
2022-10-09T08:58:46.346Z,101758.28
2022-10-09T09:01:38.832Z,101757.81
2022-10-09T09:04:52.399Z,101750.25
2022-10-09T09:08:14.747Z,101746.81
2022-10-09T09:11:21.485Z,101726.00
2022-10-09T09:14:07.167Z,101744.00
2022-10-09T09:17:07.493Z,101738.06
2022-10-09T09:20:01.264Z,101736.34
2022-10-09T09:22:49.158Z,101721.34
2022-10-09T09:25:39.510Z,101712.81
2022-10-09T09:28:33.247Z,101723.47
2022-10-09T09:31:25.980Z,101716.31
2022-10-09T09:34:19.709Z,101697.88
2022-10-09T09:37:04.642Z,101707.72
2022-10-09T09:42:56.990Z,101703.19
2022-10-09T09:45:43.771Z,101694.09
2022-10-09T09:48:41.222Z,101685.53
2022-10-09T09:51:30.381Z,101678.09
2022-10-09T09:54:20.479Z,101676.38
2022-10-09T09:57:17.037Z,101684.25
2022-10-09T10:00:23.653Z,101678.97
2022-10-09T10:03:16.672Z,101649.59
2022-10-09T10:06:02.339Z,101670.75
2022-10-09T10:09:02.042Z,101653.72
2022-10-09T10:11:58.022Z,101662.34
2022-10-09T10:14:50.155Z,101634.03
2022-10-09T10:17:36.668Z,101659.75
2022-10-09T10:20:21.955Z,101661.34
2022-10-09T10:23:24.909Z,101645.09
2022-10-09T10:26:28.520Z,101647.41
2022-10-09T10:29:25.141Z,101636.34
2022-10-09T10:32:15.887Z,101630.69
2022-10-09T10:35:01.153Z,101620.44
2022-10-09T10:38:18.202Z,101628.75
2022-10-09T10:41:22.206Z,101616.59
2022-10-09T10:44:15.467Z,101601.06
2022-10-09T10:47:06.572Z,101596.84
2022-10-09T10:49:51.834Z,101605.56
2022-10-09T10:52:59.370Z,101592.28
2022-10-09T10:56:05.103Z,101577.06
2022-10-09T10:59:41.685Z,101581.94
2022-10-09T11:02:49.221Z,101556.97
2022-10-09T11:05:57.755Z,101570.75
2022-10-09T11:09:02.801Z,101576.09
2022-10-09T11:12:19.328Z,101562.56
2022-10-09T11:15:27.961Z,101534.97
2022-10-09T11:18:35.519Z,101553.84
2022-10-09T11:21:45.318Z,101548.34
2022-10-09T11:24:32.889Z,101546.78
2022-10-09T11:27:23.987Z,101543.91
2022-10-09T11:30:11.361Z,101544.81
2022-10-09T11:33:10.932Z,101532.56
2022-10-09T11:36:02.050Z,101536.38
2022-10-09T11:39:19.979Z,101531.38
2022-10-09T11:42:06.421Z,101530.13
2022-10-09T11:45:06.384Z,101521.91
2022-10-09T11:48:03.207Z,101519.66
2022-10-09T11:51:00.540Z,101494.25
2022-10-09T11:53:46.463Z,101509.81
2022-10-09T11:56:32.289Z,101497.53
2022-10-09T11:59:23.449Z,101490.28
2022-10-09T12:02:27.324Z,101496.41
2022-10-09T12:05:38.631Z,101487.06
2022-10-09T12:08:27.390Z,101495.50
2022-10-09T12:11:15.490Z,101478.25
2022-10-09T12:14:07.666Z,101477.00
2022-10-09T12:16:53.698Z,101477.28
2022-10-09T12:19:41.951Z,101466.41
2022-10-09T12:22:41.513Z,101461.41
2022-10-09T12:25:42.911Z,101441.28
2022-10-09T12:28:38.354Z,101456.81
2022-10-09T12:31:31.623Z,101446.06
2022-10-09T12:34:37.757Z,101441.84
2022-10-09T12:37:33.450Z,101434.19
2022-10-09T12:40:44.634Z,101432.19
2022-10-09T12:43:32.249Z,101433.31
2022-10-09T12:46:26.401Z,101417.25
2022-10-09T12:49:21.654Z,101404.66
2022-10-09T12:52:14.900Z,101406.59
2022-10-09T12:55:01.953Z,101403.56
2022-10-09T12:57:47.379Z,101391.75
2022-10-09T13:00:33.961Z,101385.84
2022-10-09T13:03:26.059Z,101365.16
2022-10-09T13:06:17.514Z,101378.78
2022-10-09T13:09:06.451Z,101378.28
2022-10-09T13:11:56.344Z,101376.91
2022-10-09T13:15:06.278Z,101378.44
2022-10-09T13:17:51.788Z,101371.28
2022-10-09T13:20:37.298Z,101358.56
2022-10-09T13:23:34.850Z,101358.06
2022-10-09T13:26:24.873Z,101349.03
2022-10-09T13:29:13.471Z,101346.41
2022-10-09T13:31:58.692Z,101329.41
2022-10-09T13:34:44.740Z,101328.78
2022-10-09T13:37:30.138Z,101319.25
2022-10-09T13:40:19.736Z,101306.59
2022-10-09T13:43:05.744Z,101321.97
2022-10-09T13:45:50.864Z,101320.28
2022-10-09T13:48:37.633Z,101321.84
2022-10-09T13:51:22.722Z,101315.00
2022-10-09T13:54:08.033Z,101298.53
2022-10-09T13:56:53.436Z,101302.97
2022-10-09T13:59:38.927Z,101301.63
2022-10-09T14:02:24.097Z,101298.53
2022-10-09T14:05:09.297Z,101300.50
2022-10-09T14:07:54.676Z,101296.59
2022-10-09T14:10:43.464Z,101276.00
2022-10-09T14:13:29.009Z,101287.31
2022-10-09T14:16:14.473Z,101271.78
2022-10-09T14:19:02.319Z,101272.78
2022-10-09T14:21:47.553Z,101266.91
2022-10-09T14:24:32.786Z,101263.56
2022-10-09T14:27:18.091Z,101264.59
2022-10-09T14:30:03.481Z,101262.50
2022-10-09T14:32:49.121Z,101263.38
2022-10-09T14:35:34.093Z,101237.47
2022-10-09T14:38:19.025Z,101250.25
2022-10-09T14:41:04.321Z,101245.72
2022-10-09T14:43:56.649Z,101244.09
2022-10-09T14:46:41.575Z,101241.91
2022-10-09T14:49:26.898Z,101226.88
2022-10-09T14:52:12.401Z,101240.84
2022-10-09T14:54:57.309Z,101232.50
2022-10-09T14:57:43.623Z,101228.28
2022-10-09T15:00:28.595Z,101229.91
2022-10-09T15:03:13.586Z,101217.66
2022-10-09T15:05:59.939Z,101214.31
2022-10-09T15:08:45.311Z,101189.34
2022-10-09T15:11:30.621Z,101208.44
2022-10-09T15:14:15.491Z,101197.84
2022-10-09T15:17:00.838Z,101200.22
2022-10-09T15:19:46.061Z,101194.06
2022-10-09T15:22:31.157Z,101194.22
2022-10-09T15:25:16.762Z,101182.88
2022-10-09T15:28:02.085Z,101181.16
2022-10-09T15:30:57.709Z,101176.34
2022-10-09T15:33:42.887Z,101154.34
2022-10-09T15:36:29.240Z,101148.47
2022-10-09T15:39:14.936Z,101159.88
2022-10-09T15:41:59.972Z,101164.75
2022-10-09T15:44:44.818Z,101157.91
2022-10-09T15:47:49.996Z,101165.84
2022-10-09T15:50:36.951Z,101148.47
2022-10-09T15:53:23.721Z,101142.50
2022-10-09T15:56:12.430Z,101147.78
2022-10-09T15:58:58.579Z,101142.78
2022-10-09T16:01:44.281Z,101126.69
2022-10-09T16:04:29.420Z,101144.56
2022-10-09T16:07:14.646Z,101129.34
2022-10-09T16:09:59.614Z,101123.50
2022-10-09T16:12:44.471Z,101117.53
2022-10-09T16:15:29.436Z,101120.56
2022-10-09T16:18:20.664Z,101117.97
2022-10-09T16:21:08.418Z,101110.84
2022-10-09T16:23:58.474Z,101094.16
2022-10-09T16:26:44.175Z,101100.09
2022-10-09T16:29:30.402Z,101098.50
2022-10-09T16:32:16.214Z,101095.41
2022-10-09T16:35:01.380Z,101084.41
2022-10-09T16:37:46.742Z,101095.22
2022-10-09T16:40:57.500Z,101086.38
2022-10-09T16:43:38.760Z,101081.81
2022-10-09T16:46:25.592Z,101084.00
2022-10-09T16:49:20.003Z,101039.69
2022-10-09T16:52:08.239Z,101079.94
2022-10-09T16:54:57.078Z,101088.56
2022-10-09T16:57:45.154Z,101074.22
2022-10-09T17:00:30.313Z,101079.94
2022-10-09T17:03:15.495Z,101087.38
2022-10-09T17:06:00.602Z,101088.34
2022-10-09T17:08:46.475Z,101080.44
2022-10-09T17:11:32.332Z,101088.84
2022-10-09T17:14:17.552Z,101088.94
2022-10-09T17:17:04.599Z,101082.44
2022-10-09T17:22:39.767Z,101068.53
2022-10-09T17:25:25.118Z,101085.81
2022-10-09T17:28:10.175Z,101082.69
2022-10-09T17:30:55.427Z,101070.78
2022-10-09T17:33:42.964Z,101076.50
2022-10-09T17:36:30.996Z,101067.50
2022-10-09T17:39:17.686Z,101089.44
2022-10-09T17:42:03.311Z,101040.41
2022-10-09T17:44:48.327Z,101082.25
2022-10-09T17:47:33.417Z,101076.31
2022-10-09T17:50:18.629Z,101057.28
2022-10-09T17:53:04.390Z,101077.50
2022-10-09T17:55:50.808Z,101067.28
2022-10-09T17:58:35.699Z,101038.88
2022-10-09T18:01:20.780Z,101063.88
2022-10-09T18:04:05.910Z,101051.63
2022-10-09T18:06:51.065Z,101043.88
2022-10-09T18:09:36.361Z,101063.94
2022-10-09T18:12:21.628Z,101060.31
2022-10-09T18:15:07.373Z,101069.25
2022-10-09T18:17:52.862Z,101044.94
2022-10-09T18:20:39.801Z,101054.16
2022-10-09T18:23:24.979Z,101052.81
2022-10-09T18:26:12.359Z,101052.91
2022-10-09T18:28:59.103Z,101061.34
2022-10-09T18:31:44.040Z,101060.22
2022-10-09T18:34:29.240Z,101060.53
2022-10-09T18:37:15.193Z,101054.56
2022-10-09T18:40:00.084Z,101036.53
2022-10-09T18:42:45.385Z,101052.59
2022-10-09T18:45:30.774Z,101055.88
2022-10-09T18:48:16.858Z,101058.19
2022-10-09T18:51:03.585Z,101057.06
2022-10-09T18:53:54.095Z,101028.25
2022-10-09T18:56:39.842Z,101048.84
2022-10-09T18:59:24.997Z,101040.44
2022-10-09T19:02:10.325Z,101037.06
2022-10-09T19:04:56.189Z,101040.88
2022-10-09T19:07:41.523Z,101037.72
2022-10-09T19:10:26.972Z,101034.56
2022-10-09T19:13:12.056Z,101037.47
2022-10-09T19:16:04.565Z,101040.81
2022-10-09T19:18:53.103Z,101017.31
2022-10-09T19:21:39.397Z,101032.09
2022-10-09T19:24:24.468Z,101020.94
2022-10-09T19:27:09.621Z,101030.84
2022-10-09T19:29:55.043Z,101022.09
2022-10-09T19:32:40.389Z,101028.78
2022-10-09T19:35:25.573Z,101029.06
2022-10-09T19:38:10.637Z,101018.34
2022-10-09T19:40:55.690Z,101024.91
2022-10-09T19:43:41.909Z,101024.91
2022-10-09T19:46:27.789Z,100993.28
2022-10-09T19:49:13.050Z,101026.22
2022-10-09T19:51:58.274Z,100992.44
2022-10-09T19:54:43.200Z,101017.28
2022-10-09T19:57:28.410Z,101020.78
2022-10-09T20:00:13.839Z,101021.16
2022-10-09T20:02:59.163Z,101017.41
2022-10-09T20:05:44.124Z,100993.69
2022-10-09T20:08:29.442Z,100999.03
2022-10-09T20:11:14.926Z,100995.56
2022-10-09T20:14:00.556Z,101017.91
2022-10-09T20:16:45.718Z,101005.03
2022-10-09T20:19:31.541Z,101003.34
2022-10-09T20:22:16.787Z,100998.47
2022-10-09T20:25:02.393Z,100997.19
2022-10-09T20:27:47.503Z,101001.75
2022-10-09T20:30:32.699Z,101004.94
2022-10-09T20:33:17.863Z,101006.91
2022-10-09T20:36:03.930Z,101001.38
2022-10-09T20:38:49.730Z,100995.84
2022-10-09T20:41:35.151Z,100998.94
2022-10-09T20:44:20.338Z,100992.47
2022-10-09T20:47:05.341Z,100998.06
2022-10-09T20:49:50.271Z,100966.22
2022-10-09T20:52:35.282Z,100984.72
2022-10-09T20:55:20.370Z,100984.72
2022-10-09T20:58:05.558Z,100985.69
2022-10-09T21:00:50.869Z,100951.66
2022-10-09T21:03:38.002Z,100978.56
2022-10-09T21:06:23.781Z,100952.78
2022-10-09T21:09:09.031Z,100984.09
2022-10-09T21:11:54.318Z,100976.50
2022-10-09T21:14:39.347Z,100953.88
2022-10-09T21:17:24.673Z,100974.34
2022-10-09T21:20:09.896Z,100963.06
2022-10-09T21:22:55.323Z,100973.88
2022-10-09T21:25:47.639Z,100975.75
2022-10-09T21:28:33.073Z,100981.16
2022-10-09T21:31:20.849Z,100966.94
2022-10-09T21:34:06.649Z,100977.22
2022-10-09T21:37:19.750Z,100964.22
2022-10-09T21:39:58.516Z,100957.75
2022-10-09T21:42:43.810Z,100975.22
2022-10-09T21:45:28.702Z,100978.00
2022-10-09T21:48:15.603Z,100939.66
2022-10-09T21:51:00.785Z,100966.91
2022-10-09T21:53:46.036Z,100981.13
2022-10-09T21:56:31.348Z,100979.53
2022-10-09T21:59:16.628Z,100952.44
2022-10-09T22:02:02.830Z,100971.13
2022-10-09T22:04:48.528Z,100963.47
2022-10-09T22:07:33.504Z,100943.88
2022-10-09T22:10:18.962Z,100967.88
2022-10-09T22:13:03.905Z,100961.38
2022-10-09T22:15:51.266Z,100971.19
2022-10-09T22:18:37.582Z,100954.13
2022-10-09T22:21:22.933Z,100965.66
2022-10-09T22:24:08.067Z,100955.50
2022-10-09T22:26:55.439Z,100954.72
2022-10-09T22:29:40.624Z,100954.31
2022-10-09T22:32:25.797Z,100937.22
2022-10-09T22:35:10.861Z,100942.25
2022-10-09T22:37:57.319Z,100939.84
2022-10-09T22:40:46.432Z,100924.84
2022-10-09T22:43:32.518Z,100939.84
2022-10-09T22:46:20.717Z,100938.97
2022-10-09T22:49:16.752Z,100929.38
2022-10-09T22:52:01.790Z,100937.28
2022-10-09T22:54:47.121Z,100935.69
2022-10-09T22:57:31.999Z,100910.63
2022-10-09T23:00:17.189Z,100926.50
2022-10-09T23:03:02.298Z,100912.16
2022-10-09T23:05:47.551Z,100935.28
2022-10-09T23:08:33.381Z,100914.25
2022-10-09T23:11:19.642Z,100924.91
2022-10-09T23:14:05.529Z,100913.75
2022-10-09T23:16:50.425Z,100914.66
2022-10-09T23:19:35.834Z,100906.16
2022-10-09T23:22:21.210Z,100906.16
2022-10-09T23:25:06.715Z,100895.72
2022-10-09T23:27:52.002Z,100901.41
2022-10-09T23:30:37.253Z,100899.56
2022-10-09T23:33:22.629Z,100889.78
2022-10-09T23:36:09.473Z,100861.53
2022-10-09T23:38:55.128Z,100880.84
2022-10-09T23:41:40.382Z,100873.38
2022-10-09T23:44:25.257Z,100871.69
2022-10-09T23:47:10.289Z,100882.41
2022-10-09T23:49:55.140Z,100871.59
2022-10-09T23:52:40.033Z,100867.59
2022-10-09T23:55:25.305Z,100867.06
2022-10-09T23:58:11.003Z,100857.56
